sensor_id;sensor_type;location;lat;lon;timestamp;P1;durP1;ratioP1;P2;durP2;ratioP2
21634;SDS011;10979;48.306;9.830;2022-12-11T00:01:31;0.50;;;0.50;;
21634;SDS011;10979;48.306;9.830;2022-12-11T00:03:57;0.50;;;0.50;;
21634;SDS011;10979;48.306;9.830;2022-12-11T00:06:22;0.50;;;0.50;;
21634;SDS011;10979;48.306;9.830;2022-12-11T00:08:52;0.45;;;0.45;;
21634;SDS011;10979;48.306;9.830;2022-12-11T00:11:19;0.50;;;0.50;;
21634;SDS011;10979;48.306;9.830;2022-12-11T00:13:45;0.50;;;0.50;;
21634;SDS011;10979;48.306;9.830;2022-12-11T00:16:11;0.50;;;0.50;;
21634;SDS011;10979;48.306;9.830;2022-12-11T00:18:37;0.50;;;0.50;;
21634;SDS011;10979;48.306;9.830;2022-12-11T00:21:05;0.50;;;0.50;;
21634;SDS011;10979;48.306;9.830;2022-12-11T00:23:34;0.50;;;0.50;;
21634;SDS011;10979;48.306;9.830;2022-12-11T00:25:59;0.50;;;0.50;;
21634;SDS011;10979;48.306;9.830;2022-12-11T00:28:29;0.50;;;0.50;;
21634;SDS011;10979;48.306;9.830;2022-12-11T00:30:54;0.50;;;0.50;;
21634;SDS011;10979;48.306;9.830;2022-12-11T00:33:20;0.50;;;0.50;;
21634;SDS011;10979;48.306;9.830;2022-12-11T00:35:45;0.50;;;0.50;;
21634;SDS011;10979;48.306;9.830;2022-12-11T00:38:15;0.50;;;0.50;;
21634;SDS011;10979;48.306;9.830;2022-12-11T00:40:42;0.50;;;0.50;;
21634;SDS011;10979;48.306;9.830;2022-12-11T00:43:08;0.40;;;0.40;;
21634;SDS011;10979;48.306;9.830;2022-12-11T00:45:39;0.40;;;0.40;;
21634;SDS011;10979;48.306;9.830;2022-12-11T00:48:08;0.50;;;0.50;;
21634;SDS011;10979;48.306;9.830;2022-12-11T00:50:34;0.50;;;0.50;;
21634;SDS011;10979;48.306;9.830;2022-12-11T00:53:00;0.50;;;0.50;;
21634;SDS011;10979;48.306;9.830;2022-12-11T00:55:27;0.40;;;0.40;;
21634;SDS011;10979;48.306;9.830;2022-12-11T00:57:53;0.50;;;0.50;;
21634;SDS011;10979;48.306;9.830;2022-12-11T01:00:19;0.50;;;0.50;;
21634;SDS011;10979;48.306;9.830;2022-12-11T01:02:46;0.40;;;0.40;;
21634;SDS011;10979;48.306;9.830;2022-12-11T01:05:12;0.40;;;0.40;;
21634;SDS011;10979;48.306;9.830;2022-12-11T01:07:38;0.50;;;0.50;;
21634;SDS011;10979;48.306;9.830;2022-12-11T01:10:04;0.40;;;0.40;;
21634;SDS011;10979;48.306;9.830;2022-12-11T01:12:59;0.40;;;0.40;;
21634;SDS011;10979;48.306;9.830;2022-12-11T01:15:30;0.50;;;0.50;;
21634;SDS011;10979;48.306;9.830;2022-12-11T01:17:59;0.50;;;0.50;;
21634;SDS011;10979;48.306;9.830;2022-12-11T01:20:25;0.50;;;0.50;;
21634;SDS011;10979;48.306;9.830;2022-12-11T01:22:52;0.50;;;0.50;;
21634;SDS011;10979;48.306;9.830;2022-12-11T01:25:19;0.50;;;0.50;;
21634;SDS011;10979;48.306;9.830;2022-12-11T01:27:45;0.50;;;0.50;;
21634;SDS011;10979;48.306;9.830;2022-12-11T01:30:11;0.50;;;0.50;;
21634;SDS011;10979;48.306;9.830;2022-12-11T01:32:38;0.50;;;0.50;;
21634;SDS011;10979;48.306;9.830;2022-12-11T01:35:04;0.50;;;0.50;;
21634;SDS011;10979;48.306;9.830;2022-12-11T01:37:31;0.50;;;0.50;;
21634;SDS011;10979;48.306;9.830;2022-12-11T01:39:57;0.50;;;0.50;;
21634;SDS011;10979;48.306;9.830;2022-12-11T01:42:23;0.50;;;0.50;;
21634;SDS011;10979;48.306;9.830;2022-12-11T01:47:14;0.50;;;0.50;;
21634;SDS011;10979;48.306;9.830;2022-12-11T01:49:41;0.50;;;0.50;;
21634;SDS011;10979;48.306;9.830;2022-12-11T01:52:10;0.50;;;0.50;;
21634;SDS011;10979;48.306;9.830;2022-12-11T01:54:43;0.50;;;0.50;;
21634;SDS011;10979;48.306;9.830;2022-12-11T01:57:10;0.50;;;0.50;;
21634;SDS011;10979;48.306;9.830;2022-12-11T01:59:37;0.50;;;0.50;;
21634;SDS011;10979;48.306;9.830;2022-12-11T02:02:06;0.50;;;0.50;;
21634;SDS011;10979;48.306;9.830;2022-12-11T02:04:39;0.50;;;0.50;;
21634;SDS011;10979;48.306;9.830;2022-12-11T02:07:06;0.50;;;0.50;;
21634;SDS011;10979;48.306;9.830;2022-12-11T02:09:32;0.50;;;0.50;;
21634;SDS011;10979;48.306;9.830;2022-12-11T02:12:05;0.50;;;0.50;;
21634;SDS011;10979;48.306;9.830;2022-12-11T02:17:40;0.50;;;0.50;;
21634;SDS011;10979;48.306;9.830;2022-12-11T02:20:13;0.50;;;0.50;;
21634;SDS011;10979;48.306;9.830;2022-12-11T02:34:07;0.50;;;0.50;;
21634;SDS011;10979;48.306;9.830;2022-12-11T02:36:40;0.50;;;0.50;;
21634;SDS011;10979;48.306;9.830;2022-12-11T02:39:09;0.50;;;0.50;;
21634;SDS011;10979;48.306;9.830;2022-12-11T02:41:39;0.50;;;0.50;;
21634;SDS011;10979;48.306;9.830;2022-12-11T02:44:10;0.50;;;0.50;;
21634;SDS011;10979;48.306;9.830;2022-12-11T02:46:36;0.50;;;0.50;;
21634;SDS011;10979;48.306;9.830;2022-12-11T02:49:03;0.50;;;0.50;;
21634;SDS011;10979;48.306;9.830;2022-12-11T02:51:32;0.50;;;0.50;;
21634;SDS011;10979;48.306;9.830;2022-12-11T02:54:00;0.50;;;0.50;;
21634;SDS011;10979;48.306;9.830;2022-12-11T02:56:37;0.50;;;0.50;;
21634;SDS011;10979;48.306;9.830;2022-12-11T02:59:13;0.50;;;0.50;;
21634;SDS011;10979;48.306;9.830;2022-12-11T03:01:42;0.50;;;0.50;;
21634;SDS011;10979;48.306;9.830;2022-12-11T03:04:09;0.50;;;0.50;;
21634;SDS011;10979;48.306;9.830;2022-12-11T03:06:36;0.50;;;0.50;;
21634;SDS011;10979;48.306;9.830;2022-12-11T03:09:05;0.50;;;0.50;;
21634;SDS011;10979;48.306;9.830;2022-12-11T03:11:31;0.50;;;0.50;;
21634;SDS011;10979;48.306;9.830;2022-12-11T03:13:57;0.50;;;0.50;;
21634;SDS011;10979;48.306;9.830;2022-12-11T03:16:33;0.50;;;0.50;;
21634;SDS011;10979;48.306;9.830;2022-12-11T03:26:53;0.50;;;0.50;;
21634;SDS011;10979;48.306;9.830;2022-12-11T03:29:23;0.50;;;0.50;;
21634;SDS011;10979;48.306;9.830;2022-12-11T03:32:12;0.50;;;0.50;;
21634;SDS011;10979;48.306;9.830;2022-12-11T03:34:44;0.50;;;0.50;;
21634;SDS011;10979;48.306;9.830;2022-12-11T03:37:31;0.50;;;0.50;;
21634;SDS011;10979;48.306;9.830;2022-12-11T03:40:02;0.50;;;0.50;;
21634;SDS011;10979;48.306;9.830;2022-12-11T03:42:32;0.50;;;0.50;;
21634;SDS011;10979;48.306;9.830;2022-12-11T03:44:59;0.50;;;0.50;;
21634;SDS011;10979;48.306;9.830;2022-12-11T03:47:26;0.50;;;0.50;;
21634;SDS011;10979;48.306;9.830;2022-12-11T03:49:54;0.50;;;0.50;;
21634;SDS011;10979;48.306;9.830;2022-12-11T03:52:22;0.50;;;0.50;;
21634;SDS011;10979;48.306;9.830;2022-12-11T03:54:51;0.50;;;0.50;;
21634;SDS011;10979;48.306;9.830;2022-12-11T03:57:21;0.50;;;0.50;;
21634;SDS011;10979;48.306;9.830;2022-12-11T03:59:51;0.50;;;0.50;;
21634;SDS011;10979;48.306;9.830;2022-12-11T04:02:16;0.50;;;0.50;;
21634;SDS011;10979;48.306;9.830;2022-12-11T04:04:42;0.50;;;0.50;;
21634;SDS011;10979;48.306;9.830;2022-12-11T04:07:08;0.50;;;0.50;;
21634;SDS011;10979;48.306;9.830;2022-12-11T04:09:33;0.50;;;0.50;;
21634;SDS011;10979;48.306;9.830;2022-12-11T04:11:59;0.50;;;0.50;;
21634;SDS011;10979;48.306;9.830;2022-12-11T04:14:25;0.50;;;0.50;;
21634;SDS011;10979;48.306;9.830;2022-12-11T04:17:09;0.50;;;0.50;;
21634;SDS011;10979;48.306;9.830;2022-12-11T04:19:35;0.50;;;0.50;;
21634;SDS011;10979;48.306;9.830;2022-12-11T04:22:19;0.50;;;0.50;;
21634;SDS011;10979;48.306;9.830;2022-12-11T04:25:04;0.50;;;0.50;;
21634;SDS011;10979;48.306;9.830;2022-12-11T04:27:31;0.50;;;0.50;;
21634;SDS011;10979;48.306;9.830;2022-12-11T04:30:22;0.50;;;0.50;;
21634;SDS011;10979;48.306;9.830;2022-12-11T04:32:49;0.50;;;0.50;;
21634;SDS011;10979;48.306;9.830;2022-12-11T04:35:16;0.50;;;0.50;;
21634;SDS011;10979;48.306;9.830;2022-12-11T04:37:42;0.50;;;0.50;;
21634;SDS011;10979;48.306;9.830;2022-12-11T04:40:08;0.50;;;0.50;;
21634;SDS011;10979;48.306;9.830;2022-12-11T04:42:37;0.50;;;0.50;;
21634;SDS011;10979;48.306;9.830;2022-12-11T04:45:03;0.50;;;0.50;;
21634;SDS011;10979;48.306;9.830;2022-12-11T04:47:29;0.50;;;0.50;;
21634;SDS011;10979;48.306;9.830;2022-12-11T04:49:55;0.40;;;0.40;;
21634;SDS011;10979;48.306;9.830;2022-12-11T04:52:21;0.50;;;0.50;;
21634;SDS011;10979;48.306;9.830;2022-12-11T04:54:47;0.50;;;0.50;;
21634;SDS011;10979;48.306;9.830;2022-12-11T04:57:12;0.50;;;0.50;;
21634;SDS011;10979;48.306;9.830;2022-12-11T04:59:38;0.50;;;0.50;;
21634;SDS011;10979;48.306;9.830;2022-12-11T05:02:03;0.50;;;0.50;;
21634;SDS011;10979;48.306;9.830;2022-12-11T05:04:30;0.50;;;0.50;;
21634;SDS011;10979;48.306;9.830;2022-12-11T05:06:57;0.50;;;0.50;;
21634;SDS011;10979;48.306;9.830;2022-12-11T05:09:23;0.50;;;0.50;;
21634;SDS011;10979;48.306;9.830;2022-12-11T05:11:48;0.50;;;0.50;;
21634;SDS011;10979;48.306;9.830;2022-12-11T05:14:14;0.50;;;0.50;;
21634;SDS011;10979;48.306;9.830;2022-12-11T05:16:39;0.50;;;0.50;;
21634;SDS011;10979;48.306;9.830;2022-12-11T05:19:05;0.50;;;0.50;;
21634;SDS011;10979;48.306;9.830;2022-12-11T05:21:30;0.50;;;0.50;;
21634;SDS011;10979;48.306;9.830;2022-12-11T05:23:56;0.50;;;0.50;;
21634;SDS011;10979;48.306;9.830;2022-12-11T05:26:21;0.50;;;0.50;;
21634;SDS011;10979;48.306;9.830;2022-12-11T05:28:49;0.50;;;0.50;;
21634;SDS011;10979;48.306;9.830;2022-12-11T05:31:18;0.50;;;0.50;;
21634;SDS011;10979;48.306;9.830;2022-12-11T05:33:45;0.50;;;0.50;;
21634;SDS011;10979;48.306;9.830;2022-12-11T05:36:12;0.50;;;0.50;;
21634;SDS011;10979;48.306;9.830;2022-12-11T05:38:44;0.50;;;0.50;;
21634;SDS011;10979;48.306;9.830;2022-12-11T05:41:11;0.52;;;0.52;;
21634;SDS011;10979;48.306;9.830;2022-12-11T05:43:38;0.60;;;0.60;;
21634;SDS011;10979;48.306;9.830;2022-12-11T05:46:09;0.60;;;0.60;;
21634;SDS011;10979;48.306;9.830;2022-12-11T05:48:37;0.60;;;0.60;;
21634;SDS011;10979;48.306;9.830;2022-12-11T05:51:03;0.60;;;0.60;;
21634;SDS011;10979;48.306;9.830;2022-12-11T05:53:29;0.50;;;0.50;;
21634;SDS011;10979;48.306;9.830;2022-12-11T05:56:29;0.57;;;0.57;;
21634;SDS011;10979;48.306;9.830;2022-12-11T05:58:49;0.60;;;0.60;;
21634;SDS011;10979;48.306;9.830;2022-12-11T06:01:16;0.60;;;0.60;;
21634;SDS011;10979;48.306;9.830;2022-12-11T06:03:44;0.60;;;0.60;;
21634;SDS011;10979;48.306;9.830;2022-12-11T06:06:10;0.60;;;0.60;;
21634;SDS011;10979;48.306;9.830;2022-12-11T06:08:36;0.60;;;0.60;;
21634;SDS011;10979;48.306;9.830;2022-12-11T06:11:03;0.60;;;0.60;;
21634;SDS011;10979;48.306;9.830;2022-12-11T06:13:29;0.60;;;0.60;;
21634;SDS011;10979;48.306;9.830;2022-12-11T06:15:59;0.60;;;0.60;;
21634;SDS011;10979;48.306;9.830;2022-12-11T06:18:26;0.60;;;0.60;;
21634;SDS011;10979;48.306;9.830;2022-12-11T06:20:52;0.60;;;0.60;;
21634;SDS011;10979;48.306;9.830;2022-12-11T06:23:18;0.60;;;0.60;;
21634;SDS011;10979;48.306;9.830;2022-12-11T06:25:44;0.60;;;0.60;;
21634;SDS011;10979;48.306;9.830;2022-12-11T06:28:09;0.60;;;0.60;;
21634;SDS011;10979;48.306;9.830;2022-12-11T06:30:35;0.60;;;0.60;;
21634;SDS011;10979;48.306;9.830;2022-12-11T06:33:01;0.60;;;0.60;;
21634;SDS011;10979;48.306;9.830;2022-12-11T06:35:26;0.60;;;0.60;;
21634;SDS011;10979;48.306;9.830;2022-12-11T06:37:52;0.60;;;0.60;;
21634;SDS011;10979;48.306;9.830;2022-12-11T06:40:17;0.60;;;0.60;;
21634;SDS011;10979;48.306;9.830;2022-12-11T06:42:43;0.70;;;0.70;;
21634;SDS011;10979;48.306;9.830;2022-12-11T06:45:08;0.60;;;0.60;;
21634;SDS011;10979;48.306;9.830;2022-12-11T06:47:34;0.60;;;0.60;;
21634;SDS011;10979;48.306;9.830;2022-12-11T06:50:00;0.70;;;0.70;;
21634;SDS011;10979;48.306;9.830;2022-12-11T06:52:26;0.60;;;0.60;;
21634;SDS011;10979;48.306;9.830;2022-12-11T06:54:52;0.60;;;0.60;;
21634;SDS011;10979;48.306;9.830;2022-12-11T06:57:18;0.60;;;0.60;;
21634;SDS011;10979;48.306;9.830;2022-12-11T06:59:44;0.60;;;0.60;;
21634;SDS011;10979;48.306;9.830;2022-12-11T07:02:13;0.60;;;0.60;;
21634;SDS011;10979;48.306;9.830;2022-12-11T07:04:40;0.60;;;0.60;;
21634;SDS011;10979;48.306;9.830;2022-12-11T07:07:06;0.70;;;0.70;;
21634;SDS011;10979;48.306;9.830;2022-12-11T07:09:32;0.70;;;0.70;;
21634;SDS011;10979;48.306;9.830;2022-12-11T07:11:58;0.70;;;0.70;;
21634;SDS011;10979;48.306;9.830;2022-12-11T07:14:24;0.60;;;0.60;;
21634;SDS011;10979;48.306;9.830;2022-12-11T07:16:49;0.70;;;0.70;;
21634;SDS011;10979;48.306;9.830;2022-12-11T07:19:15;0.70;;;0.70;;
21634;SDS011;10979;48.306;9.830;2022-12-11T07:21:41;0.70;;;0.70;;
21634;SDS011;10979;48.306;9.830;2022-12-11T07:24:06;0.70;;;0.70;;
21634;SDS011;10979;48.306;9.830;2022-12-11T07:26:32;0.70;;;0.70;;
21634;SDS011;10979;48.306;9.830;2022-12-11T07:28:58;0.70;;;0.70;;
21634;SDS011;10979;48.306;9.830;2022-12-11T07:31:25;0.65;;;0.65;;
21634;SDS011;10979;48.306;9.830;2022-12-11T07:33:56;0.70;;;0.70;;
21634;SDS011;10979;48.306;9.830;2022-12-11T07:36:23;0.70;;;0.70;;
21634;SDS011;10979;48.306;9.830;2022-12-11T07:38:49;0.70;;;0.70;;
21634;SDS011;10979;48.306;9.830;2022-12-11T07:41:15;0.70;;;0.70;;
21634;SDS011;10979;48.306;9.830;2022-12-11T07:43:41;0.70;;;0.70;;
21634;SDS011;10979;48.306;9.830;2022-12-11T07:46:12;0.70;;;0.70;;
21634;SDS011;10979;48.306;9.830;2022-12-11T07:48:40;0.70;;;0.70;;
21634;SDS011;10979;48.306;9.830;2022-12-11T07:53:54;0.70;;;0.70;;
21634;SDS011;10979;48.306;9.830;2022-12-11T07:56:22;0.70;;;0.70;;
21634;SDS011;10979;48.306;9.830;2022-12-11T07:58:48;0.60;;;0.60;;
21634;SDS011;10979;48.306;9.830;2022-12-11T08:01:15;0.70;;;0.70;;
21634;SDS011;10979;48.306;9.830;2022-12-11T08:03:45;0.60;;;0.60;;
21634;SDS011;10979;48.306;9.830;2022-12-11T08:06:11;0.60;;;0.60;;
21634;SDS011;10979;48.306;9.830;2022-12-11T08:08:37;0.60;;;0.60;;
21634;SDS011;10979;48.306;9.830;2022-12-11T08:11:04;0.55;;;0.55;;
21634;SDS011;10979;48.306;9.830;2022-12-11T08:13:31;0.50;;;0.50;;
21634;SDS011;10979;48.306;9.830;2022-12-11T08:15:57;0.50;;;0.50;;
21634;SDS011;10979;48.306;9.830;2022-12-11T08:18:23;0.50;;;0.50;;
21634;SDS011;10979;48.306;9.830;2022-12-11T08:20:49;0.50;;;0.50;;
21634;SDS011;10979;48.306;9.830;2022-12-11T08:23:14;0.50;;;0.50;;
21634;SDS011;10979;48.306;9.830;2022-12-11T08:25:40;0.40;;;0.40;;
21634;SDS011;10979;48.306;9.830;2022-12-11T08:28:06;0.40;;;0.40;;
21634;SDS011;10979;48.306;9.830;2022-12-11T08:30:31;0.40;;;0.40;;
21634;SDS011;10979;48.306;9.830;2022-12-11T08:32:57;0.40;;;0.40;;
21634;SDS011;10979;48.306;9.830;2022-12-11T08:35:23;0.40;;;0.40;;
21634;SDS011;10979;48.306;9.830;2022-12-11T08:37:50;0.40;;;0.40;;
21634;SDS011;10979;48.306;9.830;2022-12-11T08:40:15;0.40;;;0.40;;
21634;SDS011;10979;48.306;9.830;2022-12-11T08:42:41;0.40;;;0.40;;
21634;SDS011;10979;48.306;9.830;2022-12-11T08:45:07;0.40;;;0.40;;
21634;SDS011;10979;48.306;9.830;2022-12-11T08:47:33;0.40;;;0.40;;
21634;SDS011;10979;48.306;9.830;2022-12-11T08:49:58;0.40;;;0.40;;
21634;SDS011;10979;48.306;9.830;2022-12-11T08:52:24;0.40;;;0.40;;
21634;SDS011;10979;48.306;9.830;2022-12-11T08:54:49;0.40;;;0.40;;
21634;SDS011;10979;48.306;9.830;2022-12-11T08:57:15;0.40;;;0.40;;
21634;SDS011;10979;48.306;9.830;2022-12-11T08:59:40;0.40;;;0.40;;
21634;SDS011;10979;48.306;9.830;2022-12-11T09:02:08;0.40;;;0.40;;
21634;SDS011;10979;48.306;9.830;2022-12-11T09:04:36;0.40;;;0.40;;
21634;SDS011;10979;48.306;9.830;2022-12-11T09:07:02;0.40;;;0.40;;
21634;SDS011;10979;48.306;9.830;2022-12-11T09:09:27;0.40;;;0.40;;
21634;SDS011;10979;48.306;9.830;2022-12-11T09:11:53;0.40;;;0.40;;
21634;SDS011;10979;48.306;9.830;2022-12-11T09:14:19;0.40;;;0.40;;
21634;SDS011;10979;48.306;9.830;2022-12-11T09:16:45;0.40;;;0.40;;
21634;SDS011;10979;48.306;9.830;2022-12-11T09:19:11;0.40;;;0.40;;
21634;SDS011;10979;48.306;9.830;2022-12-11T09:21:38;0.45;;;0.45;;
21634;SDS011;10979;48.306;9.830;2022-12-11T09:24:04;0.40;;;0.40;;
21634;SDS011;10979;48.306;9.830;2022-12-11T09:26:30;0.50;;;0.50;;
21634;SDS011;10979;48.306;9.830;2022-12-11T09:28:55;0.50;;;0.50;;
21634;SDS011;10979;48.306;9.830;2022-12-11T09:31:23;0.50;;;0.50;;
21634;SDS011;10979;48.306;9.830;2022-12-11T09:33:53;0.43;;;0.43;;
21634;SDS011;10979;48.306;9.830;2022-12-11T09:36:21;0.50;;;0.50;;
21634;SDS011;10979;48.306;9.830;2022-12-11T09:38:47;0.40;;;0.40;;
21634;SDS011;10979;48.306;9.830;2022-12-11T09:43:51;0.47;;;0.47;;
21634;SDS011;10979;48.306;9.830;2022-12-11T09:46:18;0.40;;;0.40;;
21634;SDS011;10979;48.306;9.830;2022-12-11T09:48:45;0.50;;;0.50;;
21634;SDS011;10979;48.306;9.830;2022-12-11T09:51:14;0.50;;;0.50;;
21634;SDS011;10979;48.306;9.830;2022-12-11T09:53:47;0.50;;;0.50;;
21634;SDS011;10979;48.306;9.830;2022-12-11T09:56:24;0.50;;;0.50;;
21634;SDS011;10979;48.306;9.830;2022-12-11T10:15:27;0.40;;;0.40;;
21634;SDS011;10979;48.306;9.830;2022-12-11T10:17:59;0.50;;;0.50;;
21634;SDS011;10979;48.306;9.830;2022-12-11T10:22:55;0.50;;;0.50;;
21634;SDS011;10979;48.306;9.830;2022-12-11T10:25:33;0.50;;;0.50;;
21634;SDS011;10979;48.306;9.830;2022-12-11T10:28:14;0.50;;;0.50;;
21634;SDS011;10979;48.306;9.830;2022-12-11T10:30:47;0.50;;;0.50;;
21634;SDS011;10979;48.306;9.830;2022-12-11T10:33:40;0.50;;;0.50;;
21634;SDS011;10979;48.306;9.830;2022-12-11T10:36:12;0.50;;;0.50;;
21634;SDS011;10979;48.306;9.830;2022-12-11T10:38:43;0.40;;;0.40;;
21634;SDS011;10979;48.306;9.830;2022-12-11T10:41:11;0.40;;;0.40;;
21634;SDS011;10979;48.306;9.830;2022-12-11T10:43:44;0.40;;;0.40;;
21634;SDS011;10979;48.306;9.830;2022-12-11T10:46:21;0.40;;;0.40;;
21634;SDS011;10979;48.306;9.830;2022-12-11T10:51:19;0.40;;;0.40;;
21634;SDS011;10979;48.306;9.830;2022-12-11T10:53:54;0.40;;;0.40;;
21634;SDS011;10979;48.306;9.830;2022-12-11T10:56:28;0.40;;;0.40;;
21634;SDS011;10979;48.306;9.830;2022-12-11T10:58:56;0.40;;;0.40;;
21634;SDS011;10979;48.306;9.830;2022-12-11T11:01:24;0.40;;;0.40;;
21634;SDS011;10979;48.306;9.830;2022-12-11T11:06:31;0.40;;;0.40;;
21634;SDS011;10979;48.306;9.830;2022-12-11T11:08:58;0.40;;;0.40;;
21634;SDS011;10979;48.306;9.830;2022-12-11T11:14:14;0.40;;;0.40;;
21634;SDS011;10979;48.306;9.830;2022-12-11T11:16:44;0.40;;;0.40;;
21634;SDS011;10979;48.306;9.830;2022-12-11T11:19:22;0.40;;;0.40;;
21634;SDS011;10979;48.306;9.830;2022-12-11T11:21:52;0.40;;;0.40;;
21634;SDS011;10979;48.306;9.830;2022-12-11T11:24:23;0.40;;;0.40;;
21634;SDS011;10979;48.306;9.830;2022-12-11T11:27:11;0.40;;;0.40;;
21634;SDS011;10979;48.306;9.830;2022-12-11T11:29:37;0.40;;;0.40;;
21634;SDS011;10979;48.306;9.830;2022-12-11T11:32:26;0.40;;;0.40;;
21634;SDS011;10979;48.306;9.830;2022-12-11T11:35:04;0.40;;;0.40;;
21634;SDS011;10979;48.306;9.830;2022-12-11T11:37:39;0.40;;;0.40;;
21634;SDS011;10979;48.306;9.830;2022-12-11T11:40:21;0.40;;;0.40;;
21634;SDS011;10979;48.306;9.830;2022-12-11T11:46:01;0.40;;;0.40;;
21634;SDS011;10979;48.306;9.830;2022-12-11T11:48:37;0.40;;;0.40;;
21634;SDS011;10979;48.306;9.830;2022-12-11T11:51:24;0.40;;;0.40;;
21634;SDS011;10979;48.306;9.830;2022-12-11T11:53:56;0.40;;;0.40;;
21634;SDS011;10979;48.306;9.830;2022-12-11T11:56:26;0.40;;;0.40;;
21634;SDS011;10979;48.306;9.830;2022-12-11T12:01:46;0.40;;;0.40;;
21634;SDS011;10979;48.306;9.830;2022-12-11T12:04:12;0.40;;;0.40;;
21634;SDS011;10979;48.306;9.830;2022-12-11T12:09:49;0.40;;;0.40;;
21634;SDS011;10979;48.306;9.830;2022-12-11T12:12:24;0.40;;;0.40;;
21634;SDS011;10979;48.306;9.830;2022-12-11T12:25:26;0.40;;;0.40;;
21634;SDS011;10979;48.306;9.830;2022-12-11T12:33:36;0.30;;;0.30;;
21634;SDS011;10979;48.306;9.830;2022-12-11T12:36:26;0.30;;;0.30;;
21634;SDS011;10979;48.306;9.830;2022-12-11T12:45:09;0.40;;;0.40;;
21634;SDS011;10979;48.306;9.830;2022-12-11T12:47:41;0.30;;;0.30;;
21634;SDS011;10979;48.306;9.830;2022-12-11T12:50:11;0.40;;;0.40;;
21634;SDS011;10979;48.306;9.830;2022-12-11T12:52:40;0.40;;;0.40;;
21634;SDS011;10979;48.306;9.830;2022-12-11T12:58:05;0.40;;;0.40;;
21634;SDS011;10979;48.306;9.830;2022-12-11T13:00:35;0.40;;;0.40;;
21634;SDS011;10979;48.306;9.830;2022-12-11T13:03:12;0.40;;;0.40;;
21634;SDS011;10979;48.306;9.830;2022-12-11T13:05:41;0.30;;;0.30;;
21634;SDS011;10979;48.306;9.830;2022-12-11T13:08:09;0.40;;;0.40;;
21634;SDS011;10979;48.306;9.830;2022-12-11T13:10:37;0.40;;;0.40;;
21634;SDS011;10979;48.306;9.830;2022-12-11T13:13:24;0.40;;;0.40;;
21634;SDS011;10979;48.306;9.830;2022-12-11T13:16:04;0.40;;;0.40;;
21634;SDS011;10979;48.306;9.830;2022-12-11T13:18:36;0.40;;;0.40;;
21634;SDS011;10979;48.306;9.830;2022-12-11T13:21:23;0.40;;;0.40;;
21634;SDS011;10979;48.306;9.830;2022-12-11T13:26:36;0.40;;;0.40;;
21634;SDS011;10979;48.306;9.830;2022-12-11T13:29:02;0.40;;;0.40;;
21634;SDS011;10979;48.306;9.830;2022-12-11T13:31:38;0.40;;;0.40;;
21634;SDS011;10979;48.306;9.830;2022-12-11T13:34:20;0.40;;;0.40;;
21634;SDS011;10979;48.306;9.830;2022-12-11T13:36:48;0.40;;;0.40;;
21634;SDS011;10979;48.306;9.830;2022-12-11T13:39:16;0.30;;;0.30;;
21634;SDS011;10979;48.306;9.830;2022-12-11T13:41:50;0.40;;;0.40;;
21634;SDS011;10979;48.306;9.830;2022-12-11T13:44:20;0.40;;;0.40;;
21634;SDS011;10979;48.306;9.830;2022-12-11T13:47:09;0.40;;;0.40;;
21634;SDS011;10979;48.306;9.830;2022-12-11T13:52:06;0.30;;;0.30;;
21634;SDS011;10979;48.306;9.830;2022-12-11T13:54:33;0.40;;;0.40;;
21634;SDS011;10979;48.306;9.830;2022-12-11T13:57:14;0.40;;;0.40;;
21634;SDS011;10979;48.306;9.830;2022-12-11T13:59:48;0.40;;;0.40;;
21634;SDS011;10979;48.306;9.830;2022-12-11T14:04:48;0.40;;;0.40;;
21634;SDS011;10979;48.306;9.830;2022-12-11T14:07:20;0.40;;;0.40;;
21634;SDS011;10979;48.306;9.830;2022-12-11T14:09:59;0.40;;;0.40;;
21634;SDS011;10979;48.306;9.830;2022-12-11T14:14:54;0.40;;;0.40;;
21634;SDS011;10979;48.306;9.830;2022-12-11T14:17:29;0.40;;;0.40;;
21634;SDS011;10979;48.306;9.830;2022-12-11T14:19:57;0.40;;;0.40;;
21634;SDS011;10979;48.306;9.830;2022-12-11T14:22:26;0.30;;;0.30;;
21634;SDS011;10979;48.306;9.830;2022-12-11T14:24:54;0.40;;;0.40;;
21634;SDS011;10979;48.306;9.830;2022-12-11T14:27:22;0.40;;;0.40;;
21634;SDS011;10979;48.306;9.830;2022-12-11T14:29:49;0.40;;;0.40;;
21634;SDS011;10979;48.306;9.830;2022-12-11T14:34:54;0.40;;;0.40;;
21634;SDS011;10979;48.306;9.830;2022-12-11T14:37:21;0.40;;;0.40;;
21634;SDS011;10979;48.306;9.830;2022-12-11T14:42:26;0.40;;;0.40;;
21634;SDS011;10979;48.306;9.830;2022-12-11T14:45:04;0.40;;;0.40;;
21634;SDS011;10979;48.306;9.830;2022-12-11T14:47:33;0.40;;;0.40;;
21634;SDS011;10979;48.306;9.830;2022-12-11T14:50:06;0.40;;;0.40;;
21634;SDS011;10979;48.306;9.830;2022-12-11T14:52:42;0.40;;;0.40;;
21634;SDS011;10979;48.306;9.830;2022-12-11T14:55:21;0.40;;;0.40;;
21634;SDS011;10979;48.306;9.830;2022-12-11T14:57:51;0.40;;;0.40;;
21634;SDS011;10979;48.306;9.830;2022-12-11T15:00:22;0.40;;;0.40;;
21634;SDS011;10979;48.306;9.830;2022-12-11T15:03:00;0.40;;;0.40;;
21634;SDS011;10979;48.306;9.830;2022-12-11T15:05:31;0.40;;;0.40;;
21634;SDS011;10979;48.306;9.830;2022-12-11T15:10:24;0.40;;;0.40;;
21634;SDS011;10979;48.306;9.830;2022-12-11T15:13:14;0.40;;;0.40;;
21634;SDS011;10979;48.306;9.830;2022-12-11T15:15:47;0.40;;;0.40;;
21634;SDS011;10979;48.306;9.830;2022-12-11T15:18:55;0.50;;;0.50;;
21634;SDS011;10979;48.306;9.830;2022-12-11T15:21:08;0.50;;;0.50;;
21634;SDS011;10979;48.306;9.830;2022-12-11T15:23:38;0.40;;;0.40;;
21634;SDS011;10979;48.306;9.830;2022-12-11T15:26:16;0.40;;;0.40;;
21634;SDS011;10979;48.306;9.830;2022-12-11T15:28:42;0.40;;;0.40;;
21634;SDS011;10979;48.306;9.830;2022-12-11T15:31:27;0.40;;;0.40;;
21634;SDS011;10979;48.306;9.830;2022-12-11T15:33:55;0.40;;;0.40;;
21634;SDS011;10979;48.306;9.830;2022-12-11T15:36:25;0.40;;;0.40;;
21634;SDS011;10979;48.306;9.830;2022-12-11T15:38:54;0.40;;;0.40;;
21634;SDS011;10979;48.306;9.830;2022-12-11T15:41:22;0.50;;;0.50;;
21634;SDS011;10979;48.306;9.830;2022-12-11T15:43:49;0.40;;;0.40;;
21634;SDS011;10979;48.306;9.830;2022-12-11T15:46:16;0.50;;;0.50;;
21634;SDS011;10979;48.306;9.830;2022-12-11T15:48:42;0.43;;;0.43;;
21634;SDS011;10979;48.306;9.830;2022-12-11T15:51:08;0.40;;;0.40;;
21634;SDS011;10979;48.306;9.830;2022-12-11T15:53:34;0.50;;;0.50;;
21634;SDS011;10979;48.306;9.830;2022-12-11T15:55:59;0.45;;;0.45;;
21634;SDS011;10979;48.306;9.830;2022-12-11T15:58:25;0.50;;;0.50;;
21634;SDS011;10979;48.306;9.830;2022-12-11T16:00:52;0.40;;;0.40;;
21634;SDS011;10979;48.306;9.830;2022-12-11T16:03:18;0.50;;;0.50;;
21634;SDS011;10979;48.306;9.830;2022-12-11T16:05:46;0.50;;;0.50;;
21634;SDS011;10979;48.306;9.830;2022-12-11T16:08:14;0.40;;;0.40;;
21634;SDS011;10979;48.306;9.830;2022-12-11T16:10:43;0.50;;;0.50;;
21634;SDS011;10979;48.306;9.830;2022-12-11T16:13:10;0.40;;;0.40;;
21634;SDS011;10979;48.306;9.830;2022-12-11T16:15:37;0.50;;;0.50;;
21634;SDS011;10979;48.306;9.830;2022-12-11T16:18:09;0.50;;;0.50;;
21634;SDS011;10979;48.306;9.830;2022-12-11T16:20:36;0.50;;;0.50;;
21634;SDS011;10979;48.306;9.830;2022-12-11T16:23:04;0.50;;;0.50;;
21634;SDS011;10979;48.306;9.830;2022-12-11T16:25:30;0.50;;;0.50;;
21634;SDS011;10979;48.306;9.830;2022-12-11T16:27:57;0.45;;;0.45;;
21634;SDS011;10979;48.306;9.830;2022-12-11T16:30:25;0.50;;;0.50;;
21634;SDS011;10979;48.306;9.830;2022-12-11T16:32:51;0.50;;;0.50;;
21634;SDS011;10979;48.306;9.830;2022-12-11T16:35:17;0.50;;;0.50;;
21634;SDS011;10979;48.306;9.830;2022-12-11T16:37:44;0.50;;;0.50;;
21634;SDS011;10979;48.306;9.830;2022-12-11T16:40:09;0.50;;;0.50;;
21634;SDS011;10979;48.306;9.830;2022-12-11T16:42:36;0.50;;;0.50;;
21634;SDS011;10979;48.306;9.830;2022-12-11T16:45:06;0.50;;;0.50;;
21634;SDS011;10979;48.306;9.830;2022-12-11T16:47:34;0.50;;;0.50;;
21634;SDS011;10979;48.306;9.830;2022-12-11T16:50:00;0.50;;;0.50;;